sensor_id;sensor_type;location;lat;lon;timestamp;temperature;humidity
21698;DHT22;11010;49.548;11.926;2024-03-23T00:53:53;9.40;99.90
21698;DHT22;11010;49.548;11.926;2024-03-23T00:56:19;9.50;99.90
21698;DHT22;11010;49.548;11.926;2024-03-23T00:58:45;9.30;99.90
21698;DHT22;11010;49.548;11.926;2024-03-23T01:01:11;9.50;99.90
21698;DHT22;11010;49.548;11.926;2024-03-23T01:03:37;9.60;99.90
21698;DHT22;11010;49.548;11.926;2024-03-23T01:06:03;9.70;99.90
21698;DHT22;11010;49.548;11.926;2024-03-23T01:08:30;9.70;99.90
21698;DHT22;11010;49.548;11.926;2024-03-23T01:11:02;9.60;99.90
21698;DHT22;11010;49.548;11.926;2024-03-23T01:13:28;9.60;99.90
21698;DHT22;11010;49.548;11.926;2024-03-23T01:15:56;9.60;99.90
21698;DHT22;11010;49.548;11.926;2024-03-23T01:18:23;9.50;99.90
21698;DHT22;11010;49.548;11.926;2024-03-23T01:20:49;9.20;99.90
21698;DHT22;11010;49.548;11.926;2024-03-23T01:23:15;9.30;99.90
21698;DHT22;11010;49.548;11.926;2024-03-23T01:25:41;9.10;99.90
21698;DHT22;11010;49.548;11.926;2024-03-23T01:28:07;9.10;99.90
21698;DHT22;11010;49.548;11.926;2024-03-23T01:30:34;9.10;99.90
21698;DHT22;11010;49.548;11.926;2024-03-23T01:33:01;9.30;99.90
21698;DHT22;11010;49.548;11.926;2024-03-23T01:35:28;9.30;99.90
21698;DHT22;11010;49.548;11.926;2024-03-23T01:37:54;9.30;99.90
21698;DHT22;11010;49.548;11.926;2024-03-23T01:40:21;9.30;99.90
21698;DHT22;11010;49.548;11.926;2024-03-23T01:42:57;9.10;99.90
21698;DHT22;11010;49.548;11.926;2024-03-23T01:45:23;9.10;99.90
21698;DHT22;11010;49.548;11.926;2024-03-23T01:47:51;8.80;99.90
21698;DHT22;11010;49.548;11.926;2024-03-23T01:50:17;8.60;99.90
21698;DHT22;11010;49.548;11.926;2024-03-23T01:52:43;8.70;99.90
21698;DHT22;11010;49.548;11.926;2024-03-23T01:55:10;8.70;99.90
21698;DHT22;11010;49.548;11.926;2024-03-23T01:57:36;8.50;99.90
21698;DHT22;11010;49.548;11.926;2024-03-23T02:00:02;8.90;99.90
21698;DHT22;11010;49.548;11.926;2024-03-23T02:02:44;9.00;99.90
21698;DHT22;11010;49.548;11.926;2024-03-23T02:05:14;8.90;99.90
21698;DHT22;11010;49.548;11.926;2024-03-23T02:07:41;8.60;99.90
21698;DHT22;11010;49.548;11.926;2024-03-23T02:10:08;8.30;99.90
21698;DHT22;11010;49.548;11.926;2024-03-23T02:12:36;8.60;99.90
21698;DHT22;11010;49.548;11.926;2024-03-23T02:15:02;8.80;99.90
21698;DHT22;11010;49.548;11.926;2024-03-23T02:17:30;8.90;99.90
21698;DHT22;11010;49.548;11.926;2024-03-23T02:19:56;8.90;99.90
21698;DHT22;11010;49.548;11.926;2024-03-23T02:22:22;9.00;99.90
21698;DHT22;11010;49.548;11.926;2024-03-23T02:24:48;8.70;99.90
21698;DHT22;11010;49.548;11.926;2024-03-23T02:27:14;8.70;99.90
21698;DHT22;11010;49.548;11.926;2024-03-23T02:29:40;8.70;99.90
21698;DHT22;11010;49.548;11.926;2024-03-23T02:32:07;8.80;99.90
21698;DHT22;11010;49.548;11.926;2024-03-23T02:34:35;8.90;99.90
21698;DHT22;11010;49.548;11.926;2024-03-23T02:37:01;9.00;99.90
21698;DHT22;11010;49.548;11.926;2024-03-23T02:39:28;9.00;99.90
21698;DHT22;11010;49.548;11.926;2024-03-23T02:41:54;9.00;99.90
21698;DHT22;11010;49.548;11.926;2024-03-23T02:44:20;9.10;99.90
21698;DHT22;11010;49.548;11.926;2024-03-23T02:46:46;9.10;99.90
21698;DHT22;11010;49.548;11.926;2024-03-23T02:49:12;9.00;99.90
21698;DHT22;11010;49.548;11.926;2024-03-23T02:51:39;9.00;99.90
21698;DHT22;11010;49.548;11.926;2024-03-23T02:54:05;8.90;99.90
21698;DHT22;11010;49.548;11.926;2024-03-23T02:56:32;8.80;99.90
21698;DHT22;11010;49.548;11.926;2024-03-23T02:58:58;8.80;99.90
21698;DHT22;11010;49.548;11.926;2024-03-23T03:01:24;8.60;99.90
21698;DHT22;11010;49.548;11.926;2024-03-23T03:03:51;8.50;99.90
21698;DHT22;11010;49.548;11.926;2024-03-23T03:06:27;8.80;99.90
21698;DHT22;11010;49.548;11.926;2024-03-23T03:08:53;8.90;99.90
21698;DHT22;11010;49.548;11.926;2024-03-23T03:11:19;9.00;99.90
21698;DHT22;11010;49.548;11.926;2024-03-23T03:13:45;8.90;99.90
21698;DHT22;11010;49.548;11.926;2024-03-23T03:16:12;8.90;99.90
21698;DHT22;11010;49.548;11.926;2024-03-23T03:18:39;8.90;99.90
21698;DHT22;11010;49.548;11.926;2024-03-23T03:21:07;8.90;99.90
21698;DHT22;11010;49.548;11.926;2024-03-23T03:23:40;8.70;99.90
21698;DHT22;11010;49.548;11.926;2024-03-23T03:26:06;8.70;99.90
21698;DHT22;11010;49.548;11.926;2024-03-23T03:28:32;8.80;99.90
21698;DHT22;11010;49.548;11.926;2024-03-23T03:30:59;8.90;99.90
21698;DHT22;11010;49.548;11.926;2024-03-23T03:33:27;8.60;99.90
21698;DHT22;11010;49.548;11.926;2024-03-23T03:35:53;8.50;99.90
21698;DHT22;11010;49.548;11.926;2024-03-23T03:38:20;8.80;99.90
21698;DHT22;11010;49.548;11.926;2024-03-23T03:40:46;8.70;99.90
21698;DHT22;11010;49.548;11.926;2024-03-23T03:43:12;8.60;99.90
21698;DHT22;11010;49.548;11.926;2024-03-23T03:45:39;8.60;99.90
21698;DHT22;11010;49.548;11.926;2024-03-23T03:48:05;8.50;99.90
21698;DHT22;11010;49.548;11.926;2024-03-23T03:50:32;8.60;99.90
21698;DHT22;11010;49.548;11.926;2024-03-23T03:52:58;8.80;99.90
21698;DHT22;11010;49.548;11.926;2024-03-23T03:55:24;8.90;99.90
21698;DHT22;11010;49.548;11.926;2024-03-23T03:57:50;9.00;99.90
21698;DHT22;11010;49.548;11.926;2024-03-23T04:00:16;8.80;99.90
21698;DHT22;11010;49.548;11.926;2024-03-23T04:02:42;8.80;99.90
21698;DHT22;11010;49.548;11.926;2024-03-23T04:05:08;9.00;99.90
21698;DHT22;11010;49.548;11.926;2024-03-23T04:07:34;9.00;99.90
21698;DHT22;11010;49.548;11.926;2024-03-23T04:10:00;9.00;99.90
21698;DHT22;11010;49.548;11.926;2024-03-23T04:12:26;9.00;99.90
21698;DHT22;11010;49.548;11.926;2024-03-23T04:14:52;9.10;99.90
21698;DHT22;11010;49.548;11.926;2024-03-23T04:17:19;9.10;99.90
21698;DHT22;11010;49.548;11.926;2024-03-23T04:19:45;8.80;99.90
21698;DHT22;11010;49.548;11.926;2024-03-23T04:22:11;8.50;99.90
21698;DHT22;11010;49.548;11.926;2024-03-23T04:24:37;8.40;99.90
21698;DHT22;11010;49.548;11.926;2024-03-23T04:27:03;8.60;99.90
21698;DHT22;11010;49.548;11.926;2024-03-23T04:29:29;8.70;99.90
21698;DHT22;11010;49.548;11.926;2024-03-23T04:31:55;8.70;99.90
21698;DHT22;11010;49.548;11.926;2024-03-23T04:34:22;8.80;99.90
21698;DHT22;11010;49.548;11.926;2024-03-23T04:36:49;8.90;99.90
21698;DHT22;11010;49.548;11.926;2024-03-23T04:39:15;8.90;99.90
21698;DHT22;11010;49.548;11.926;2024-03-23T04:41:41;8.90;99.90
21698;DHT22;11010;49.548;11.926;2024-03-23T04:44:07;8.80;99.90
21698;DHT22;11010;49.548;11.926;2024-03-23T04:46:33;8.90;99.90
21698;DHT22;11010;49.548;11.926;2024-03-23T04:48:59;8.90;99.90
21698;DHT22;11010;49.548;11.926;2024-03-23T04:51:25;9.00;99.90
21698;DHT22;11010;49.548;11.926;2024-03-23T04:53:52;8.90;99.90
21698;DHT22;11010;49.548;11.926;2024-03-23T04:56:18;8.90;99.90
21698;DHT22;11010;49.548;11.926;2024-03-23T04:58:44;8.70;99.90
21698;DHT22;11010;49.548;11.926;2024-03-23T05:01:11;8.60;99.90
21698;DHT22;11010;49.548;11.926;2024-03-23T05:03:37;8.90;99.90
21698;DHT22;11010;49.548;11.926;2024-03-23T05:06:04;8.90;99.90
21698;DHT22;11010;49.548;11.926;2024-03-23T05:08:31;8.90;99.90
21698;DHT22;11010;49.548;11.926;2024-03-23T05:10:57;8.90;99.90
21698;DHT22;11010;49.548;11.926;2024-03-23T05:13:23;8.90;99.90
21698;DHT22;11010;49.548;11.926;2024-03-23T05:15:55;9.00;99.90
21698;DHT22;11010;49.548;11.926;2024-03-23T05:18:22;8.90;99.90
21698;DHT22;11010;49.548;11.926;2024-03-23T05:20:48;8.70;99.90
21698;DHT22;11010;49.548;11.926;2024-03-23T05:23:14;8.80;99.90
21698;DHT22;11010;49.548;11.926;2024-03-23T05:25:40;8.80;99.90
21698;DHT22;11010;49.548;11.926;2024-03-23T05:28:06;8.60;99.90
21698;DHT22;11010;49.548;11.926;2024-03-23T05:30:32;8.60;99.90
21698;DHT22;11010;49.548;11.926;2024-03-23T05:32:59;8.60;99.90
21698;DHT22;11010;49.548;11.926;2024-03-23T05:35:25;8.40;99.90
21698;DHT22;11010;49.548;11.926;2024-03-23T05:37:51;8.20;99.90
21698;DHT22;11010;49.548;11.926;2024-03-23T05:40:17;8.20;99.90
21698;DHT22;11010;49.548;11.926;2024-03-23T05:42:43;8.30;99.90
21698;DHT22;11010;49.548;11.926;2024-03-23T05:45:09;8.40;99.90
21698;DHT22;11010;49.548;11.926;2024-03-23T05:47:35;8.40;99.90
21698;DHT22;11010;49.548;11.926;2024-03-23T05:50:01;8.50;99.90
21698;DHT22;11010;49.548;11.926;2024-03-23T05:52:28;8.50;99.90
21698;DHT22;11010;49.548;11.926;2024-03-23T05:54:54;8.60;99.90
21698;DHT22;11010;49.548;11.926;2024-03-23T05:57:20;8.60;99.90
21698;DHT22;11010;49.548;11.926;2024-03-23T05:59:46;8.80;99.90
21698;DHT22;11010;49.548;11.926;2024-03-23T06:02:12;9.00;99.90
21698;DHT22;11010;49.548;11.926;2024-03-23T06:04:38;9.10;99.90
21698;DHT22;11010;49.548;11.926;2024-03-23T06:07:04;9.20;99.90
21698;DHT22;11010;49.548;11.926;2024-03-23T06:09:42;9.20;99.90
21698;DHT22;11010;49.548;11.926;2024-03-23T06:12:08;9.20;99.90
21698;DHT22;11010;49.548;11.926;2024-03-23T06:14:34;9.20;99.90
21698;DHT22;11010;49.548;11.926;2024-03-23T06:17:00;9.20;99.90
21698;DHT22;11010;49.548;11.926;2024-03-23T06:19:27;9.20;99.90
21698;DHT22;11010;49.548;11.926;2024-03-23T06:21:54;9.30;99.90
21698;DHT22;11010;49.548;11.926;2024-03-23T06:24:23;9.40;99.90
21698;DHT22;11010;49.548;11.926;2024-03-23T06:26:50;9.60;99.90
21698;DHT22;11010;49.548;11.926;2024-03-23T06:29:16;9.70;99.90
21698;DHT22;11010;49.548;11.926;2024-03-23T06:31:42;9.90;99.90
21698;DHT22;11010;49.548;11.926;2024-03-23T06:34:08;10.00;99.90
21698;DHT22;11010;49.548;11.926;2024-03-23T06:36:34;10.10;99.90
21698;DHT22;11010;49.548;11.926;2024-03-23T06:39:02;10.20;99.90
21698;DHT22;11010;49.548;11.926;2024-03-23T06:41:28;10.20;99.90
21698;DHT22;11010;49.548;11.926;2024-03-23T06:43:54;10.10;99.90
21698;DHT22;11010;49.548;11.926;2024-03-23T06:46:20;10.10;99.90
21698;DHT22;11010;49.548;11.926;2024-03-23T06:48:46;10.10;99.90
21698;DHT22;11010;49.548;11.926;2024-03-23T06:51:12;10.00;99.90
21698;DHT22;11010;49.548;11.926;2024-03-23T06:53:38;9.90;99.90
21698;DHT22;11010;49.548;11.926;2024-03-23T06:56:04;9.90;99.90
21698;DHT22;11010;49.548;11.926;2024-03-23T06:58:31;9.90;99.90
21698;DHT22;11010;49.548;11.926;2024-03-23T07:00:57;9.90;99.90
21698;DHT22;11010;49.548;11.926;2024-03-23T07:03:23;9.80;99.90
21698;DHT22;11010;49.548;11.926;2024-03-23T07:05:49;9.80;99.90
21698;DHT22;11010;49.548;11.926;2024-03-23T07:08:15;9.80;99.90
21698;DHT22;11010;49.548;11.926;2024-03-23T07:10:47;10.00;99.90
21698;DHT22;11010;49.548;11.926;2024-03-23T07:13:12;9.90;99.90
21698;DHT22;11010;49.548;11.926;2024-03-23T07:15:38;9.80;99.90
21698;DHT22;11010;49.548;11.926;2024-03-23T07:18:05;9.70;99.90
21698;DHT22;11010;49.548;11.926;2024-03-23T07:20:31;9.60;99.90
21698;DHT22;11010;49.548;11.926;2024-03-23T07:23:15;9.50;99.90
21698;DHT22;11010;49.548;11.926;2024-03-23T07:25:41;9.60;99.90
21698;DHT22;11010;49.548;11.926;2024-03-23T07:28:09;9.50;99.90
21698;DHT22;11010;49.548;11.926;2024-03-23T07:30:36;9.40;99.90
21698;DHT22;11010;49.548;11.926;2024-03-23T07:33:02;9.60;99.90
21698;DHT22;11010;49.548;11.926;2024-03-23T07:35:28;9.50;99.90
21698;DHT22;11010;49.548;11.926;2024-03-23T07:37:54;9.50;99.90
21698;DHT22;11010;49.548;11.926;2024-03-23T07:40:20;9.60;99.90
21698;DHT22;11010;49.548;11.926;2024-03-23T07:42:46;9.50;99.90
21698;DHT22;11010;49.548;11.926;2024-03-23T07:45:12;9.50;99.90
21698;DHT22;11010;49.548;11.926;2024-03-23T07:47:38;9.60;99.90
21698;DHT22;11010;49.548;11.926;2024-03-23T07:50:05;9.50;99.90
21698;DHT22;11010;49.548;11.926;2024-03-23T07:52:31;9.40;99.90
21698;DHT22;11010;49.548;11.926;2024-03-23T07:54:57;9.40;99.90
21698;DHT22;11010;49.548;11.926;2024-03-23T07:57:23;9.40;99.90
21698;DHT22;11010;49.548;11.926;2024-03-23T07:59:49;9.40;99.90
21698;DHT22;11010;49.548;11.926;2024-03-23T08:02:15;9.40;99.90
21698;DHT22;11010;49.548;11.926;2024-03-23T08:04:41;9.40;99.90
21698;DHT22;11010;49.548;11.926;2024-03-23T08:07:07;9.30;99.90
21698;DHT22;11010;49.548;11.926;2024-03-23T08:09:33;9.30;99.90
21698;DHT22;11010;49.548;11.926;2024-03-23T08:11:59;9.30;99.90
21698;DHT22;11010;49.548;11.926;2024-03-23T08:14:25;9.20;99.90
21698;DHT22;11010;49.548;11.926;2024-03-23T08:16:51;9.20;99.90
21698;DHT22;11010;49.548;11.926;2024-03-23T08:19:20;9.30;99.90
21698;DHT22;11010;49.548;11.926;2024-03-23T08:21:46;9.20;99.90
21698;DHT22;11010;49.548;11.926;2024-03-23T08:24:12;9.10;99.90
21698;DHT22;11010;49.548;11.926;2024-03-23T08:26:38;9.10;99.90
21698;DHT22;11010;49.548;11.926;2024-03-23T08:29:04;9.10;99.90
21698;DHT22;11010;49.548;11.926;2024-03-23T08:31:30;9.20;99.90
21698;DHT22;11010;49.548;11.926;2024-03-23T08:33:56;9.30;99.90
21698;DHT22;11010;49.548;11.926;2024-03-23T08:36:22;9.40;99.90
21698;DHT22;11010;49.548;11.926;2024-03-23T08:38:49;9.50;99.90
21698;DHT22;11010;49.548;11.926;2024-03-23T08:41:19;9.50;99.90
21698;DHT22;11010;49.548;11.926;2024-03-23T08:43:45;9.40;99.90
21698;DHT22;11010;49.548;11.926;2024-03-23T08:46:15;9.50;99.90
21698;DHT22;11010;49.548;11.926;2024-03-23T08:48:44;9.40;99.90
21698;DHT22;11010;49.548;11.926;2024-03-23T08:51:12;9.40;99.90
21698;DHT22;11010;49.548;11.926;2024-03-23T08:53:39;9.40;99.90
21698;DHT22;11010;49.548;11.926;2024-03-23T08:56:06;9.50;99.90
21698;DHT22;11010;49.548;11.926;2024-03-23T08:58:33;9.50;99.90
21698;DHT22;11010;49.548;11.926;2024-03-23T09:01:11;9.50;99.90
21698;DHT22;11010;49.548;11.926;2024-03-23T09:03:37;9.50;99.90
21698;DHT22;11010;49.548;11.926;2024-03-23T09:06:11;9.40;99.90
21698;DHT22;11010;49.548;11.926;2024-03-23T09:08:37;9.40;99.90
21698;DHT22;11010;49.548;11.926;2024-03-23T09:11:05;9.20;99.90
21698;DHT22;11010;49.548;11.926;2024-03-23T09:13:36;9.10;99.90
21698;DHT22;11010;49.548;11.926;2024-03-23T09:16:03;8.90;99.90
21698;DHT22;11010;49.548;11.926;2024-03-23T09:18:34;8.90;99.90
21698;DHT22;11010;49.548;11.926;2024-03-23T09:21:01;8.80;99.90
21698;DHT22;11010;49.548;11.926;2024-03-23T09:23:27;8.60;99.90
21698;DHT22;11010;49.548;11.926;2024-03-23T09:25:53;8.70;99.90
21698;DHT22;11010;49.548;11.926;2024-03-23T09:28:19;8.70;99.90
21698;DHT22;11010;49.548;11.926;2024-03-23T09:30:45;8.70;99.90
21698;DHT22;11010;49.548;11.926;2024-03-23T09:33:12;8.70;99.90
21698;DHT22;11010;49.548;11.926;2024-03-23T09:35:42;8.80;99.90
21698;DHT22;11010;49.548;11.926;2024-03-23T09:38:09;8.80;99.90
21698;DHT22;11010;49.548;11.926;2024-03-23T09:40:40;8.70;99.90
21698;DHT22;11010;49.548;11.926;2024-03-23T09:43:07;8.90;99.90
21698;DHT22;11010;49.548;11.926;2024-03-23T09:45:38;8.80;99.90
21698;DHT22;11010;49.548;11.926;2024-03-23T09:48:04;8.80;99.90
21698;DHT22;11010;49.548;11.926;2024-03-23T09:50:31;8.80;99.90
21698;DHT22;11010;49.548;11.926;2024-03-23T09:52:57;8.80;99.90
21698;DHT22;11010;49.548;11.926;2024-03-23T09:55:23;8.90;99.90
21698;DHT22;11010;49.548;11.926;2024-03-23T09:57:50;8.60;99.90
21698;DHT22;11010;49.548;11.926;2024-03-23T10:00:16;8.70;99.90
21698;DHT22;11010;49.548;11.926;2024-03-23T10:02:42;8.70;99.90
21698;DHT22;11010;49.548;11.926;2024-03-23T10:05:22;8.60;99.90
21698;DHT22;11010;49.548;11.926;2024-03-23T10:07:52;8.30;99.90
21698;DHT22;11010;49.548;11.926;2024-03-23T10:10:19;8.30;99.90
21698;DHT22;11010;49.548;11.926;2024-03-23T10:12:48;8.20;99.90
21698;DHT22;11010;49.548;11.926;2024-03-23T10:15:24;8.20;99.90
21698;DHT22;11010;49.548;11.926;2024-03-23T10:17:51;8.30;99.90
21698;DHT22;11010;49.548;11.926;2024-03-23T10:20:22;8.30;99.90
21698;DHT22;11010;49.548;11.926;2024-03-23T10:22:51;8.90;99.90
21698;DHT22;11010;49.548;11.926;2024-03-23T10:25:22;9.50;99.90
21698;DHT22;11010;49.548;11.926;2024-03-23T10:28:00;9.30;99.90
21698;DHT22;11010;49.548;11.926;2024-03-23T10:30:27;9.00;99.90
21698;DHT22;11010;49.548;11.926;2024-03-23T10:33:12;8.60;99.90
21698;DHT22;11010;49.548;11.926;2024-03-23T10:35:39;8.90;99.90
21698;DHT22;11010;49.548;11.926;2024-03-23T10:38:07;9.20;99.90
21698;DHT22;11010;49.548;11.926;2024-03-23T10:40:37;9.10;99.90
21698;DHT22;11010;49.548;11.926;2024-03-23T10:43:03;8.80;99.90
21698;DHT22;11010;49.548;11.926;2024-03-23T10:45:30;8.70;99.90
21698;DHT22;11010;49.548;11.926;2024-03-23T10:47:56;8.50;99.90
21698;DHT22;11010;49.548;11.926;2024-03-23T10:50:23;8.60;99.90
21698;DHT22;11010;49.548;11.926;2024-03-23T10:52:49;8.50;99.90
21698;DHT22;11010;49.548;11.926;2024-03-23T10:55:19;8.40;99.90
21698;DHT22;11010;49.548;11.926;2024-03-23T10:57:56;8.40;99.90
21698;DHT22;11010;49.548;11.926;2024-03-23T11:00:25;8.50;99.90
21698;DHT22;11010;49.548;11.926;2024-03-23T11:02:51;8.40;99.90
21698;DHT22;11010;49.548;11.926;2024-03-23T11:07:53;8.30;99.90
21698;DHT22;11010;49.548;11.926;2024-03-23T11:10:30;8.20;99.90
21698;DHT22;11010;49.548;11.926;2024-03-23T11:13:22;8.20;99.90
21698;DHT22;11010;49.548;11.926;2024-03-23T11:15:49;8.20;99.90
21698;DHT22;11010;49.548;11.926;2024-03-23T11:18:20;8.40;99.90
21698;DHT22;11010;49.548;11.926;2024-03-23T11:20:46;8.20;99.90
21698;DHT22;11010;49.548;11.926;2024-03-23T11:23:29;8.20;99.90
21698;DHT22;11010;49.548;11.926;2024-03-23T11:25:55;8.20;99.90
21698;DHT22;11010;49.548;11.926;2024-03-23T11:28:21;8.30;99.90
21698;DHT22;11010;49.548;11.926;2024-03-23T11:30:47;8.10;99.90
21698;DHT22;11010;49.548;11.926;2024-03-23T11:33:14;8.10;99.90
21698;DHT22;11010;49.548;11.926;2024-03-23T11:35:41;8.00;99.90
21698;DHT22;11010;49.548;11.926;2024-03-23T11:38:14;8.10;99.90
21698;DHT22;11010;49.548;11.926;2024-03-23T11:40:42;8.10;99.90
21698;DHT22;11010;49.548;11.926;2024-03-23T11:43:13;8.10;99.90
21698;DHT22;11010;49.548;11.926;2024-03-23T11:45:49;8.10;99.90
21698;DHT22;11010;49.548;11.926;2024-03-23T11:48:23;8.10;99.90
21698;DHT22;11010;49.548;11.926;2024-03-23T11:50:51;8.10;99.90
21698;DHT22;11010;49.548;11.926;2024-03-23T11:53:19;8.20;99.90
21698;DHT22;11010;49.548;11.926;2024-03-23T11:55:51;9.10;99.90
21698;DHT22;11010;49.548;11.926;2024-03-23T11:58:22;9.20;99.90
21698;DHT22;11010;49.548;11.926;2024-03-23T12:00:58;9.00;99.90
21698;DHT22;11010;49.548;11.926;2024-03-23T12:03:26;8.70;99.90
21698;DHT22;11010;49.548;11.926;2024-03-23T12:05:55;8.60;99.90
21698;DHT22;11010;49.548;11.926;2024-03-23T12:08:28;8.70;99.90
21698;DHT22;11010;49.548;11.926;2024-03-23T12:11:09;8.80;99.90
21698;DHT22;11010;49.548;11.926;2024-03-23T12:13:36;8.60;99.90
21698;DHT22;11010;49.548;11.926;2024-03-23T12:16:21;8.70;99.90
21698;DHT22;11010;49.548;11.926;2024-03-23T12:18:50;8.60;99.90
21698;DHT22;11010;49.548;11.926;2024-03-23T12:21:20;8.60;99.90
21698;DHT22;11010;49.548;11.926;2024-03-23T12:23:49;8.50;99.90
21698;DHT22;11010;49.548;11.926;2024-03-23T12:26:16;8.40;99.90
21698;DHT22;11010;49.548;11.926;2024-03-23T12:28:43;8.30;99.90
21698;DHT22;11010;49.548;11.926;2024-03-23T12:31:10;8.20;99.90
21698;DHT22;11010;49.548;11.926;2024-03-23T12:33:36;8.40;99.90
21698;DHT22;11010;49.548;11.926;2024-03-23T12:36:03;8.50;99.90
21698;DHT22;11010;49.548;11.926;2024-03-23T12:38:30;8.70;99.90
21698;DHT22;11010;49.548;11.926;2024-03-23T12:40:56;8.70;99.90
21698;DHT22;11010;49.548;11.926;2024-03-23T12:43:22;8.60;99.90
21698;DHT22;11010;49.548;11.926;2024-03-23T12:45:49;8.60;99.90
21698;DHT22;11010;49.548;11.926;2024-03-23T12:48:16;8.60;99.90
21698;DHT22;11010;49.548;11.926;2024-03-23T12:50:42;9.40;99.90
21698;DHT22;11010;49.548;11.926;2024-03-23T12:53:08;10.20;99.90
21698;DHT22;11010;49.548;11.926;2024-03-23T12:55:37;10.40;99.90
21698;DHT22;11010;49.548;11.926;2024-03-23T12:58:03;10.50;99.90
21698;DHT22;11010;49.548;11.926;2024-03-23T13:00:30;11.00;99.90
21698;DHT22;11010;49.548;11.926;2024-03-23T13:02:56;11.20;99.90
21698;DHT22;11010;49.548;11.926;2024-03-23T13:05:22;11.90;99.90
21698;DHT22;11010;49.548;11.926;2024-03-23T13:07:48;11.00;99.90
21698;DHT22;11010;49.548;11.926;2024-03-23T13:10:14;11.00;99.90
21698;DHT22;11010;49.548;11.926;2024-03-23T13:12:41;11.60;99.90
21698;DHT22;11010;49.548;11.926;2024-03-23T13:15:08;11.40;99.90
21698;DHT22;11010;49.548;11.926;2024-03-23T13:17:34;10.50;99.90
21698;DHT22;11010;49.548;11.926;2024-03-23T13:20:00;10.60;99.90
21698;DHT22;11010;49.548;11.926;2024-03-23T13:22:26;10.00;99.90
21698;DHT22;11010;49.548;11.926;2024-03-23T13:24:52;9.70;99.90
21698;DHT22;11010;49.548;11.926;2024-03-23T13:27:18;9.80;99.90
21698;DHT22;11010;49.548;11.926;2024-03-23T13:29:45;10.00;99.90
21698;DHT22;11010;49.548;11.926;2024-03-23T13:32:12;9.90;99.90
21698;DHT22;11010;49.548;11.926;2024-03-23T13:34:39;9.80;99.90
21698;DHT22;11010;49.548;11.926;2024-03-23T13:37:06;9.90;99.90
21698;DHT22;11010;49.548;11.926;2024-03-23T13:39:33;9.80;99.90
21698;DHT22;11010;49.548;11.926;2024-03-23T13:41:59;9.80;99.90
21698;DHT22;11010;49.548;11.926;2024-03-23T13:44:25;9.70;99.90
21698;DHT22;11010;49.548;11.926;2024-03-23T13:46:51;9.50;99.90
21698;DHT22;11010;49.548;11.926;2024-03-23T13:49:24;9.20;99.90
21698;DHT22;11010;49.548;11.926;2024-03-23T13:51:53;9.10;99.90
21698;DHT22;11010;49.548;11.926;2024-03-23T13:54:19;9.10;99.90
21698;DHT22;11010;49.548;11.926;2024-03-23T13:56:45;8.90;99.90
21698;DHT22;11010;49.548;11.926;2024-03-23T13:59:11;9.00;99.90
21698;DHT22;11010;49.548;11.926;2024-03-23T14:01:37;8.90;99.90
21698;DHT22;11010;49.548;11.926;2024-03-23T14:04:03;8.90;99.90
21698;DHT22;11010;49.548;11.926;2024-03-23T14:06:29;8.90;99.90
21698;DHT22;11010;49.548;11.926;2024-03-23T14:08:55;9.00;99.90
21698;DHT22;11010;49.548;11.926;2024-03-23T14:11:21;9.10;99.90
21698;DHT22;11010;49.548;11.926;2024-03-23T14:13:47;9.10;99.90
21698;DHT22;11010;49.548;11.926;2024-03-23T14:16:13;8.90;99.90
21698;DHT22;11010;49.548;11.926;2024-03-23T14:18:39;9.00;99.90
21698;DHT22;11010;49.548;11.926;2024-03-23T14:21:05;9.00;99.90
21698;DHT22;11010;49.548;11.926;2024-03-23T14:23:32;9.00;99.90
21698;DHT22;11010;49.548;11.926;2024-03-23T14:25:59;9.00;99.90
21698;DHT22;11010;49.548;11.926;2024-03-23T14:28:25;9.00;99.90
21698;DHT22;11010;49.548;11.926;2024-03-23T14:30:54;9.10;99.90
21698;DHT22;11010;49.548;11.926;2024-03-23T14:33:21;9.10;99.90
21698;DHT22;11010;49.548;11.926;2024-03-23T14:35:57;9.30;99.90
21698;DHT22;11010;49.548;11.926;2024-03-23T14:38:23;9.40;99.90
21698;DHT22;11010;49.548;11.926;2024-03-23T14:40:49;9.30;99.90
21698;DHT22;11010;49.548;11.926;2024-03-23T14:43:17;9.40;99.90
21698;DHT22;11010;49.548;11.926;2024-03-23T14:48:31;9.20;99.90
21698;DHT22;11010;49.548;11.926;2024-03-23T14:50:59;9.20;99.90
21698;DHT22;11010;49.548;11.926;2024-03-23T14:53:34;9.10;99.90
21698;DHT22;11010;49.548;11.926;2024-03-23T14:56:01;9.10;99.90
21698;DHT22;11010;49.548;11.926;2024-03-23T14:58:28;9.00;99.90
21698;DHT22;11010;49.548;11.926;2024-03-23T15:01:04;8.90;99.90
21698;DHT22;11010;49.548;11.926;2024-03-23T15:03:31;9.10;99.90
21698;DHT22;11010;49.548;11.926;2024-03-23T15:05:58;9.30;99.90
21698;DHT22;11010;49.548;11.926;2024-03-23T15:08:25;9.40;99.90
21698;DHT22;11010;49.548;11.926;2024-03-23T15:10:53;9.30;99.90
21698;DHT22;11010;49.548;11.926;2024-03-23T15:13:19;9.40;99.90
21698;DHT22;11010;49.548;11.926;2024-03-23T15:15:48;9.40;99.90
21698;DHT22;11010;49.548;11.926;2024-03-23T15:18:14;9.10;99.90
21698;DHT22;11010;49.548;11.926;2024-03-23T15:20:41;9.20;99.90
21698;DHT22;11010;49.548;11.926;2024-03-23T15:23:08;9.20;99.90
21698;DHT22;11010;49.548;11.926;2024-03-23T15:25:34;9.10;99.90
21698;DHT22;11010;49.548;11.926;2024-03-23T15:28:00;9.10;99.90
21698;DHT22;11010;49.548;11.926;2024-03-23T15:30:26;9.00;99.90
21698;DHT22;11010;49.548;11.926;2024-03-23T15:32:52;9.00;99.90
21698;DHT22;11010;49.548;11.926;2024-03-23T15:35:19;9.10;99.90
21698;DHT22;11010;49.548;11.926;2024-03-23T15:37:48;9.10;99.90
21698;DHT22;11010;49.548;11.926;2024-03-23T15:40:15;9.10;99.90
21698;DHT22;11010;49.548;11.926;2024-03-23T15:42:41;9.20;99.90
21698;DHT22;11010;49.548;11.926;2024-03-23T15:45:07;9.20;99.90
21698;DHT22;11010;49.548;11.926;2024-03-23T15:47:35;8.90;99.90
21698;DHT22;11010;49.548;11.926;2024-03-23T15:50:01;8.90;99.90
21698;DHT22;11010;49.548;11.926;2024-03-23T15:52:29;8.80;99.90
21698;DHT22;11010;49.548;11.926;2024-03-23T15:54:55;8.70;99.90
21698;DHT22;11010;49.548;11.926;2024-03-23T15:57:24;8.70;99.90
21698;DHT22;11010;49.548;11.926;2024-03-23T15:59:50;8.80;99.90
21698;DHT22;11010;49.548;11.926;2024-03-23T16:02:16;8.70;99.90
21698;DHT22;11010;49.548;11.926;2024-03-23T16:04:42;8.50;99.90
21698;DHT22;11010;49.548;11.926;2024-03-23T16:07:11;8.50;99.90
21698;DHT22;11010;49.548;11.926;2024-03-23T16:09:37;8.60;99.90
21698;DHT22;11010;49.548;11.926;2024-03-23T16:12:04;8.70;99.90
21698;DHT22;11010;49.548;11.926;2024-03-23T16:14:30;8.70;99.90
21698;DHT22;11010;49.548;11.926;2024-03-23T16:16:56;8.60;99.90
21698;DHT22;11010;49.548;11.926;2024-03-23T16:19:22;8.40;99.90
21698;DHT22;11010;49.548;11.926;2024-03-23T16:21:48;8.30;99.90
21698;DHT22;11010;49.548;11.926;2024-03-23T16:24:14;8.30;99.90
21698;DHT22;11010;49.548;11.926;2024-03-23T16:26:40;8.10;99.90
21698;DHT22;11010;49.548;11.926;2024-03-23T16:29:06;7.80;99.90